sensor_id;sensor_type;location;lat;lon;timestamp;P1;durP1;ratioP1;P2;durP2;ratioP2
20830;SDS011;10576;53.556;9.868;2022-12-07T00:01:04;18.57;;;13.77;;
20830;SDS011;10576;53.556;9.868;2022-12-07T00:03:35;18.05;;;12.85;;
20830;SDS011;10576;53.556;9.868;2022-12-07T00:06:01;15.65;;;12.85;;
20830;SDS011;10576;53.556;9.868;2022-12-07T00:08:28;16.45;;;12.98;;
20830;SDS011;10576;53.556;9.868;2022-12-07T00:10:58;17.20;;;13.15;;
20830;SDS011;10576;53.556;9.868;2022-12-07T00:13:27;16.20;;;13.27;;
20830;SDS011;10576;53.556;9.868;2022-12-07T00:15:52;17.05;;;13.30;;
20830;SDS011;10576;53.556;9.868;2022-12-07T00:18:18;15.63;;;13.27;;
20830;SDS011;10576;53.556;9.868;2022-12-07T00:20:43;17.20;;;13.63;;
20830;SDS011;10576;53.556;9.868;2022-12-07T00:23:09;20.15;;;13.77;;
20830;SDS011;10576;53.556;9.868;2022-12-07T00:25:35;17.77;;;13.77;;
20830;SDS011;10576;53.556;9.868;2022-12-07T00:28:00;17.37;;;12.97;;
20830;SDS011;10576;53.556;9.868;2022-12-07T00:30:26;18.00;;;13.07;;
20830;SDS011;10576;53.556;9.868;2022-12-07T00:32:52;15.80;;;12.32;;
20830;SDS011;10576;53.556;9.868;2022-12-07T00:35:17;16.50;;;12.63;;
20830;SDS011;10576;53.556;9.868;2022-12-07T00:37:43;16.65;;;12.20;;
20830;SDS011;10576;53.556;9.868;2022-12-07T00:40:08;15.73;;;11.83;;
20830;SDS011;10576;53.556;9.868;2022-12-07T00:42:34;16.50;;;12.15;;
20830;SDS011;10576;53.556;9.868;2022-12-07T00:45:00;16.98;;;12.73;;
20830;SDS011;10576;53.556;9.868;2022-12-07T00:47:25;16.35;;;12.63;;
20830;SDS011;10576;53.556;9.868;2022-12-07T00:49:51;16.53;;;12.30;;
20830;SDS011;10576;53.556;9.868;2022-12-07T00:52:17;16.20;;;12.60;;
20830;SDS011;10576;53.556;9.868;2022-12-07T00:54:42;14.43;;;12.20;;
20830;SDS011;10576;53.556;9.868;2022-12-07T00:57:08;16.60;;;11.60;;
20830;SDS011;10576;53.556;9.868;2022-12-07T00:59:34;14.80;;;11.82;;
20830;SDS011;10576;53.556;9.868;2022-12-07T01:01:59;16.35;;;11.90;;
20830;SDS011;10576;53.556;9.868;2022-12-07T01:04:25;15.83;;;11.83;;
20830;SDS011;10576;53.556;9.868;2022-12-07T01:06:51;13.73;;;11.43;;
20830;SDS011;10576;53.556;9.868;2022-12-07T01:09:16;14.83;;;11.40;;
20830;SDS011;10576;53.556;9.868;2022-12-07T01:11:42;16.20;;;11.38;;
20830;SDS011;10576;53.556;9.868;2022-12-07T01:14:08;17.10;;;11.10;;
20830;SDS011;10576;53.556;9.868;2022-12-07T01:16:34;14.23;;;10.60;;
20830;SDS011;10576;53.556;9.868;2022-12-07T01:19:00;14.73;;;11.27;;
20830;SDS011;10576;53.556;9.868;2022-12-07T01:21:30;15.25;;;11.00;;
20830;SDS011;10576;53.556;9.868;2022-12-07T01:24:00;16.13;;;11.20;;
20830;SDS011;10576;53.556;9.868;2022-12-07T01:26:26;16.80;;;10.98;;
20830;SDS011;10576;53.556;9.868;2022-12-07T01:28:52;13.88;;;10.45;;
20830;SDS011;10576;53.556;9.868;2022-12-07T01:31:20;14.52;;;11.27;;
20830;SDS011;10576;53.556;9.868;2022-12-07T01:33:48;15.32;;;10.73;;
20830;SDS011;10576;53.556;9.868;2022-12-07T01:36:23;14.23;;;10.53;;
20830;SDS011;10576;53.556;9.868;2022-12-07T01:39:00;15.00;;;11.02;;
20830;SDS011;10576;53.556;9.868;2022-12-07T01:41:29;14.95;;;10.80;;
20830;SDS011;10576;53.556;9.868;2022-12-07T01:46:37;17.10;;;10.80;;
20830;SDS011;10576;53.556;9.868;2022-12-07T01:49:04;14.25;;;10.60;;
20830;SDS011;10576;53.556;9.868;2022-12-07T01:51:34;16.75;;;11.35;;
20830;SDS011;10576;53.556;9.868;2022-12-07T01:54:02;17.13;;;10.63;;
20830;SDS011;10576;53.556;9.868;2022-12-07T01:56:28;14.55;;;10.48;;
20830;SDS011;10576;53.556;9.868;2022-12-07T01:58:55;13.57;;;9.90;;
20830;SDS011;10576;53.556;9.868;2022-12-07T02:01:22;14.00;;;9.55;;
20830;SDS011;10576;53.556;9.868;2022-12-07T02:03:48;13.90;;;10.00;;
20830;SDS011;10576;53.556;9.868;2022-12-07T02:06:15;13.25;;;9.43;;
20830;SDS011;10576;53.556;9.868;2022-12-07T02:08:44;12.63;;;9.23;;
20830;SDS011;10576;53.556;9.868;2022-12-07T02:11:10;14.45;;;9.15;;
20830;SDS011;10576;53.556;9.868;2022-12-07T02:13:37;13.60;;;9.10;;
20830;SDS011;10576;53.556;9.868;2022-12-07T02:23:41;13.25;;;8.10;;
20830;SDS011;10576;53.556;9.868;2022-12-07T02:29:10;12.20;;;7.10;;
20830;SDS011;10576;53.556;9.868;2022-12-07T02:32:06;9.93;;;7.00;;
20830;SDS011;10576;53.556;9.868;2022-12-07T02:37:21;9.07;;;6.22;;
20830;SDS011;10576;53.556;9.868;2022-12-07T02:40:00;8.40;;;5.40;;
20830;SDS011;10576;53.556;9.868;2022-12-07T02:42:42;8.27;;;5.43;;
20830;SDS011;10576;53.556;9.868;2022-12-07T02:45:17;7.22;;;4.65;;
20830;SDS011;10576;53.556;9.868;2022-12-07T02:47:45;7.13;;;4.50;;
20830;SDS011;10576;53.556;9.868;2022-12-07T02:50:14;8.25;;;3.83;;
20830;SDS011;10576;53.556;9.868;2022-12-07T02:52:42;8.02;;;4.03;;
20830;SDS011;10576;53.556;9.868;2022-12-07T02:55:07;6.18;;;3.90;;
20830;SDS011;10576;53.556;9.868;2022-12-07T03:00:44;5.38;;;3.63;;
20830;SDS011;10576;53.556;9.868;2022-12-07T03:03:39;6.72;;;3.55;;
20830;SDS011;10576;53.556;9.868;2022-12-07T03:06:27;5.47;;;3.55;;
20830;SDS011;10576;53.556;9.868;2022-12-07T03:09:33;5.93;;;3.47;;
20830;SDS011;10576;53.556;9.868;2022-12-07T03:12:05;5.05;;;3.30;;
20830;SDS011;10576;53.556;9.868;2022-12-07T03:14:50;6.60;;;3.33;;
20830;SDS011;10576;53.556;9.868;2022-12-07T03:17:28;5.47;;;3.05;;
20830;SDS011;10576;53.556;9.868;2022-12-07T03:20:00;4.93;;;2.75;;
20830;SDS011;10576;53.556;9.868;2022-12-07T03:22:29;6.78;;;2.63;;
20830;SDS011;10576;53.556;9.868;2022-12-07T03:24:58;5.70;;;2.60;;
20830;SDS011;10576;53.556;9.868;2022-12-07T03:27:33;5.35;;;2.70;;
20830;SDS011;10576;53.556;9.868;2022-12-07T03:30:08;5.78;;;2.33;;
20830;SDS011;10576;53.556;9.868;2022-12-07T03:32:49;6.05;;;2.50;;
20830;SDS011;10576;53.556;9.868;2022-12-07T03:35:20;5.53;;;2.17;;
20830;SDS011;10576;53.556;9.868;2022-12-07T03:43:09;5.05;;;2.10;;
20830;SDS011;10576;53.556;9.868;2022-12-07T03:48:14;6.55;;;2.10;;
20830;SDS011;10576;53.556;9.868;2022-12-07T03:50:52;6.28;;;1.92;;
20830;SDS011;10576;53.556;9.868;2022-12-07T03:53:33;5.35;;;2.08;;
20830;SDS011;10576;53.556;9.868;2022-12-07T03:56:02;5.83;;;2.03;;
20830;SDS011;10576;53.556;9.868;2022-12-07T03:58:29;4.38;;;1.75;;
20830;SDS011;10576;53.556;9.868;2022-12-07T04:00:56;3.92;;;1.77;;
20830;SDS011;10576;53.556;9.868;2022-12-07T04:03:21;4.77;;;1.90;;
20830;SDS011;10576;53.556;9.868;2022-12-07T04:05:47;4.03;;;1.90;;
20830;SDS011;10576;53.556;9.868;2022-12-07T04:08:13;2.40;;;1.58;;
20830;SDS011;10576;53.556;9.868;2022-12-07T04:10:39;4.20;;;1.73;;
20830;SDS011;10576;53.556;9.868;2022-12-07T04:13:04;4.03;;;1.98;;
20830;SDS011;10576;53.556;9.868;2022-12-07T04:15:30;3.38;;;1.90;;
20830;SDS011;10576;53.556;9.868;2022-12-07T04:17:56;3.80;;;1.90;;
20830;SDS011;10576;53.556;9.868;2022-12-07T04:20:21;3.77;;;2.00;;
20830;SDS011;10576;53.556;9.868;2022-12-07T04:22:47;4.15;;;2.20;;
20830;SDS011;10576;53.556;9.868;2022-12-07T04:25:13;5.97;;;2.10;;
20830;SDS011;10576;53.556;9.868;2022-12-07T04:27:39;5.77;;;2.00;;
20830;SDS011;10576;53.556;9.868;2022-12-07T04:30:04;5.70;;;2.17;;
20830;SDS011;10576;53.556;9.868;2022-12-07T04:32:31;4.80;;;2.00;;
20830;SDS011;10576;53.556;9.868;2022-12-07T04:34:56;5.70;;;2.15;;
20830;SDS011;10576;53.556;9.868;2022-12-07T04:37:22;5.88;;;2.03;;
20830;SDS011;10576;53.556;9.868;2022-12-07T04:39:48;6.57;;;2.13;;
20830;SDS011;10576;53.556;9.868;2022-12-07T04:42:14;4.50;;;2.53;;
20830;SDS011;10576;53.556;9.868;2022-12-07T04:44:40;2.93;;;2.00;;
20830;SDS011;10576;53.556;9.868;2022-12-07T04:47:05;4.18;;;2.13;;
20830;SDS011;10576;53.556;9.868;2022-12-07T04:49:31;5.53;;;1.75;;
20830;SDS011;10576;53.556;9.868;2022-12-07T04:51:57;4.35;;;2.10;;
20830;SDS011;10576;53.556;9.868;2022-12-07T04:54:22;5.00;;;2.30;;
20830;SDS011;10576;53.556;9.868;2022-12-07T04:56:48;5.33;;;2.40;;
20830;SDS011;10576;53.556;9.868;2022-12-07T04:59:14;4.20;;;2.22;;
20830;SDS011;10576;53.556;9.868;2022-12-07T05:01:41;3.57;;;2.30;;
20830;SDS011;10576;53.556;9.868;2022-12-07T05:04:07;4.18;;;2.50;;
20830;SDS011;10576;53.556;9.868;2022-12-07T05:06:33;3.28;;;2.40;;
20830;SDS011;10576;53.556;9.868;2022-12-07T05:08:59;3.78;;;2.30;;
20830;SDS011;10576;53.556;9.868;2022-12-07T05:11:24;5.07;;;2.20;;
20830;SDS011;10576;53.556;9.868;2022-12-07T05:16:37;3.80;;;2.33;;
20830;SDS011;10576;53.556;9.868;2022-12-07T05:19:03;3.15;;;2.30;;
20830;SDS011;10576;53.556;9.868;2022-12-07T05:21:29;3.00;;;2.40;;
20830;SDS011;10576;53.556;9.868;2022-12-07T05:23:54;6.10;;;2.43;;
20830;SDS011;10576;53.556;9.868;2022-12-07T05:26:20;4.23;;;2.30;;
20830;SDS011;10576;53.556;9.868;2022-12-07T05:28:49;3.70;;;2.45;;
20830;SDS011;10576;53.556;9.868;2022-12-07T05:31:19;2.47;;;2.28;;
20830;SDS011;10576;53.556;9.868;2022-12-07T05:33:45;3.75;;;2.42;;
20830;SDS011;10576;53.556;9.868;2022-12-07T05:36:11;4.23;;;2.60;;
20830;SDS011;10576;53.556;9.868;2022-12-07T05:38:36;4.70;;;2.58;;
20830;SDS011;10576;53.556;9.868;2022-12-07T05:41:06;5.07;;;3.05;;
20830;SDS011;10576;53.556;9.868;2022-12-07T05:43:32;3.00;;;2.47;;
20830;SDS011;10576;53.556;9.868;2022-12-07T05:45:58;4.80;;;2.83;;
20830;SDS011;10576;53.556;9.868;2022-12-07T05:48:24;5.45;;;2.63;;
20830;SDS011;10576;53.556;9.868;2022-12-07T05:50:51;3.47;;;2.80;;
20830;SDS011;10576;53.556;9.868;2022-12-07T05:53:17;4.55;;;2.50;;
20830;SDS011;10576;53.556;9.868;2022-12-07T05:55:43;5.32;;;2.85;;
20830;SDS011;10576;53.556;9.868;2022-12-07T05:58:09;4.20;;;2.50;;
20830;SDS011;10576;53.556;9.868;2022-12-07T06:00:57;4.60;;;2.65;;
20830;SDS011;10576;53.556;9.868;2022-12-07T06:03:22;5.30;;;2.70;;
20830;SDS011;10576;53.556;9.868;2022-12-07T06:05:48;4.95;;;2.67;;
20830;SDS011;10576;53.556;9.868;2022-12-07T06:08:14;4.13;;;2.40;;
20830;SDS011;10576;53.556;9.868;2022-12-07T06:10:40;3.43;;;2.50;;
20830;SDS011;10576;53.556;9.868;2022-12-07T06:13:06;5.07;;;2.57;;
20830;SDS011;10576;53.556;9.868;2022-12-07T06:15:35;5.30;;;2.70;;
20830;SDS011;10576;53.556;9.868;2022-12-07T06:18:01;5.10;;;2.37;;
20830;SDS011;10576;53.556;9.868;2022-12-07T06:20:27;2.97;;;2.30;;
20830;SDS011;10576;53.556;9.868;2022-12-07T06:22:52;5.30;;;2.60;;
20830;SDS011;10576;53.556;9.868;2022-12-07T06:25:18;4.43;;;2.40;;
20830;SDS011;10576;53.556;9.868;2022-12-07T06:27:44;6.60;;;2.40;;
20830;SDS011;10576;53.556;9.868;2022-12-07T06:30:09;4.40;;;2.23;;
20830;SDS011;10576;53.556;9.868;2022-12-07T06:32:36;3.80;;;2.30;;
20830;SDS011;10576;53.556;9.868;2022-12-07T06:35:03;5.13;;;2.67;;
20830;SDS011;10576;53.556;9.868;2022-12-07T06:37:29;5.13;;;2.20;;
20830;SDS011;10576;53.556;9.868;2022-12-07T06:39:55;5.80;;;2.50;;
20830;SDS011;10576;53.556;9.868;2022-12-07T06:42:22;7.07;;;2.50;;
20830;SDS011;10576;53.556;9.868;2022-12-07T06:44:57;5.47;;;2.35;;
20830;SDS011;10576;53.556;9.868;2022-12-07T06:47:23;6.23;;;2.60;;
20830;SDS011;10576;53.556;9.868;2022-12-07T06:49:48;5.97;;;2.70;;
20830;SDS011;10576;53.556;9.868;2022-12-07T06:52:14;5.70;;;2.63;;
20830;SDS011;10576;53.556;9.868;2022-12-07T06:54:40;5.85;;;2.60;;
20830;SDS011;10576;53.556;9.868;2022-12-07T06:57:05;3.28;;;2.33;;
20830;SDS011;10576;53.556;9.868;2022-12-07T06:59:31;3.30;;;2.50;;
20830;SDS011;10576;53.556;9.868;2022-12-07T07:01:57;4.37;;;2.43;;
20830;SDS011;10576;53.556;9.868;2022-12-07T07:04:22;4.40;;;2.27;;
20830;SDS011;10576;53.556;9.868;2022-12-07T07:06:48;9.93;;;3.65;;
20830;SDS011;10576;53.556;9.868;2022-12-07T07:09:14;7.50;;;2.57;;
20830;SDS011;10576;53.556;9.868;2022-12-07T07:11:39;4.97;;;2.50;;
20830;SDS011;10576;53.556;9.868;2022-12-07T07:14:05;3.90;;;2.23;;
20830;SDS011;10576;53.556;9.868;2022-12-07T07:16:31;3.90;;;2.20;;
20830;SDS011;10576;53.556;9.868;2022-12-07T07:18:57;4.60;;;1.90;;
20830;SDS011;10576;53.556;9.868;2022-12-07T07:21:22;5.72;;;3.53;;
20830;SDS011;10576;53.556;9.868;2022-12-07T07:23:48;3.88;;;2.42;;
20830;SDS011;10576;53.556;9.868;2022-12-07T07:26:14;3.07;;;1.70;;
20830;SDS011;10576;53.556;9.868;2022-12-07T07:28:39;6.13;;;1.87;;
20830;SDS011;10576;53.556;9.868;2022-12-07T07:31:05;4.70;;;1.88;;
20830;SDS011;10576;53.556;9.868;2022-12-07T07:33:31;3.33;;;1.73;;
20830;SDS011;10576;53.556;9.868;2022-12-07T07:35:57;2.80;;;1.70;;
20830;SDS011;10576;53.556;9.868;2022-12-07T07:38:23;2.70;;;1.38;;
20830;SDS011;10576;53.556;9.868;2022-12-07T07:40:48;2.83;;;1.30;;
20830;SDS011;10576;53.556;9.868;2022-12-07T07:43:14;4.30;;;1.60;;
20830;SDS011;10576;53.556;9.868;2022-12-07T07:45:40;3.65;;;1.83;;
20830;SDS011;10576;53.556;9.868;2022-12-07T07:48:05;2.40;;;1.88;;
20830;SDS011;10576;53.556;9.868;2022-12-07T07:50:31;2.90;;;1.48;;
20830;SDS011;10576;53.556;9.868;2022-12-07T07:52:57;1.73;;;1.37;;
20830;SDS011;10576;53.556;9.868;2022-12-07T07:55:23;4.50;;;1.40;;
20830;SDS011;10576;53.556;9.868;2022-12-07T07:57:48;3.33;;;1.50;;
20830;SDS011;10576;53.556;9.868;2022-12-07T08:00:14;2.13;;;1.43;;
20830;SDS011;10576;53.556;9.868;2022-12-07T08:02:41;3.00;;;1.42;;
20830;SDS011;10576;53.556;9.868;2022-12-07T08:05:11;2.72;;;1.60;;
20830;SDS011;10576;53.556;9.868;2022-12-07T08:07:37;3.60;;;1.40;;
20830;SDS011;10576;53.556;9.868;2022-12-07T08:10:04;3.78;;;1.85;;
20830;SDS011;10576;53.556;9.868;2022-12-07T08:12:30;4.25;;;1.40;;
20830;SDS011;10576;53.556;9.868;2022-12-07T08:14:55;1.77;;;1.33;;
20830;SDS011;10576;53.556;9.868;2022-12-07T08:17:21;3.53;;;1.40;;
20830;SDS011;10576;53.556;9.868;2022-12-07T08:19:47;3.38;;;1.48;;
20830;SDS011;10576;53.556;9.868;2022-12-07T08:22:12;4.78;;;1.50;;
20830;SDS011;10576;53.556;9.868;2022-12-07T08:24:38;3.97;;;1.50;;
20830;SDS011;10576;53.556;9.868;2022-12-07T08:27:04;3.20;;;1.40;;
20830;SDS011;10576;53.556;9.868;2022-12-07T08:29:29;5.05;;;1.65;;
20830;SDS011;10576;53.556;9.868;2022-12-07T08:31:55;3.00;;;1.30;;
20830;SDS011;10576;53.556;9.868;2022-12-07T08:34:21;4.50;;;1.35;;
20830;SDS011;10576;53.556;9.868;2022-12-07T08:36:46;2.57;;;1.33;;
20830;SDS011;10576;53.556;9.868;2022-12-07T08:39:12;2.70;;;1.60;;
20830;SDS011;10576;53.556;9.868;2022-12-07T08:41:38;3.47;;;1.50;;
20830;SDS011;10576;53.556;9.868;2022-12-07T08:44:03;5.53;;;1.55;;
20830;SDS011;10576;53.556;9.868;2022-12-07T08:46:31;4.13;;;1.37;;
20830;SDS011;10576;53.556;9.868;2022-12-07T08:51:42;3.95;;;1.60;;
20830;SDS011;10576;53.556;9.868;2022-12-07T08:54:10;3.10;;;1.42;;
20830;SDS011;10576;53.556;9.868;2022-12-07T08:56:39;3.80;;;1.53;;
20830;SDS011;10576;53.556;9.868;2022-12-07T08:59:05;5.50;;;1.70;;
20830;SDS011;10576;53.556;9.868;2022-12-07T09:01:32;4.63;;;1.37;;
20830;SDS011;10576;53.556;9.868;2022-12-07T09:03:58;5.43;;;1.85;;
20830;SDS011;10576;53.556;9.868;2022-12-07T09:06:23;4.17;;;1.80;;
20830;SDS011;10576;53.556;9.868;2022-12-07T09:08:50;5.35;;;1.75;;
20830;SDS011;10576;53.556;9.868;2022-12-07T09:11:20;4.60;;;2.00;;
20830;SDS011;10576;53.556;9.868;2022-12-07T09:13:45;5.70;;;1.48;;
20830;SDS011;10576;53.556;9.868;2022-12-07T09:16:11;4.67;;;1.90;;
20830;SDS011;10576;53.556;9.868;2022-12-07T09:18:37;3.80;;;1.60;;
20830;SDS011;10576;53.556;9.868;2022-12-07T09:21:03;4.05;;;1.77;;
20830;SDS011;10576;53.556;9.868;2022-12-07T09:23:29;6.70;;;1.80;;
20830;SDS011;10576;53.556;9.868;2022-12-07T09:25:58;6.60;;;1.67;;
20830;SDS011;10576;53.556;9.868;2022-12-07T09:28:25;5.97;;;1.77;;
20830;SDS011;10576;53.556;9.868;2022-12-07T09:30:50;2.17;;;1.60;;
20830;SDS011;10576;53.556;9.868;2022-12-07T09:33:16;4.27;;;1.73;;
20830;SDS011;10576;53.556;9.868;2022-12-07T09:35:48;3.40;;;1.60;;
20830;SDS011;10576;53.556;9.868;2022-12-07T09:38:15;8.30;;;2.17;;
20830;SDS011;10576;53.556;9.868;2022-12-07T09:40:42;4.03;;;1.77;;
20830;SDS011;10576;53.556;9.868;2022-12-07T09:43:12;3.28;;;1.80;;
20830;SDS011;10576;53.556;9.868;2022-12-07T09:45:46;6.05;;;1.98;;
20830;SDS011;10576;53.556;9.868;2022-12-07T09:48:18;4.20;;;1.60;;
20830;SDS011;10576;53.556;9.868;2022-12-07T09:50:47;6.88;;;1.80;;
20830;SDS011;10576;53.556;9.868;2022-12-07T09:53:23;3.63;;;1.67;;
20830;SDS011;10576;53.556;9.868;2022-12-07T09:55:55;3.75;;;1.60;;
20830;SDS011;10576;53.556;9.868;2022-12-07T09:58:22;4.10;;;1.70;;
20830;SDS011;10576;53.556;9.868;2022-12-07T10:00:50;6.38;;;1.88;;
20830;SDS011;10576;53.556;9.868;2022-12-07T10:03:39;3.92;;;1.50;;
20830;SDS011;10576;53.556;9.868;2022-12-07T10:06:10;3.58;;;1.35;;
20830;SDS011;10576;53.556;9.868;2022-12-07T10:08:37;4.47;;;1.42;;
20830;SDS011;10576;53.556;9.868;2022-12-07T10:11:03;4.77;;;1.37;;
20830;SDS011;10576;53.556;9.868;2022-12-07T10:13:36;6.10;;;1.70;;
20830;SDS011;10576;53.556;9.868;2022-12-07T10:18:49;3.75;;;1.50;;
20830;SDS011;10576;53.556;9.868;2022-12-07T10:21:16;4.30;;;1.20;;
20830;SDS011;10576;53.556;9.868;2022-12-07T10:26:58;4.17;;;1.13;;
20830;SDS011;10576;53.556;9.868;2022-12-07T10:42:28;2.42;;;1.08;;
20830;SDS011;10576;53.556;9.868;2022-12-07T10:45:11;4.88;;;1.30;;
20830;SDS011;10576;53.556;9.868;2022-12-07T10:53:52;1.60;;;0.93;;
20830;SDS011;10576;53.556;9.868;2022-12-07T11:13:26;4.05;;;1.33;;
20830;SDS011;10576;53.556;9.868;2022-12-07T11:16:16;3.58;;;1.35;;
20830;SDS011;10576;53.556;9.868;2022-12-07T11:18:48;6.32;;;1.33;;
20830;SDS011;10576;53.556;9.868;2022-12-07T11:21:24;4.10;;;1.30;;
20830;SDS011;10576;53.556;9.868;2022-12-07T11:32:56;2.10;;;1.38;;
20830;SDS011;10576;53.556;9.868;2022-12-07T11:35:55;6.30;;;1.70;;
20830;SDS011;10576;53.556;9.868;2022-12-07T11:41:19;5.25;;;1.60;;
20830;SDS011;10576;53.556;9.868;2022-12-07T11:44:08;5.10;;;1.52;;
20830;SDS011;10576;53.556;9.868;2022-12-07T11:49:16;4.13;;;1.58;;
20830;SDS011;10576;53.556;9.868;2022-12-07T11:52:01;3.67;;;1.58;;
20830;SDS011;10576;53.556;9.868;2022-12-07T11:54:30;5.70;;;1.67;;
20830;SDS011;10576;53.556;9.868;2022-12-07T11:57:02;6.40;;;1.58;;
20830;SDS011;10576;53.556;9.868;2022-12-07T11:59:39;4.75;;;1.40;;
20830;SDS011;10576;53.556;9.868;2022-12-07T12:02:16;4.97;;;1.30;;
20830;SDS011;10576;53.556;9.868;2022-12-07T12:07:30;10.30;;;1.40;;
20830;SDS011;10576;53.556;9.868;2022-12-07T12:09:58;6.85;;;1.65;;
20830;SDS011;10576;53.556;9.868;2022-12-07T12:23:15;4.20;;;1.45;;
20830;SDS011;10576;53.556;9.868;2022-12-07T12:26:05;6.68;;;1.67;;
20830;SDS011;10576;53.556;9.868;2022-12-07T12:36:27;5.78;;;1.60;;
20830;SDS011;10576;53.556;9.868;2022-12-07T12:39:16;8.45;;;1.90;;
20830;SDS011;10576;53.556;9.868;2022-12-07T12:46:47;8.43;;;1.80;;
20830;SDS011;10576;53.556;9.868;2022-12-07T12:51:45;6.00;;;1.63;;
20830;SDS011;10576;53.556;9.868;2022-12-07T12:59:36;7.77;;;1.60;;
20830;SDS011;10576;53.556;9.868;2022-12-07T13:02:37;3.90;;;1.50;;
20830;SDS011;10576;53.556;9.868;2022-12-07T13:15:35;7.45;;;1.80;;
20830;SDS011;10576;53.556;9.868;2022-12-07T13:18:03;8.47;;;1.93;;
20830;SDS011;10576;53.556;9.868;2022-12-07T13:23:18;5.72;;;2.00;;
20830;SDS011;10576;53.556;9.868;2022-12-07T13:25:57;5.93;;;1.77;;
20830;SDS011;10576;53.556;9.868;2022-12-07T13:28:33;6.38;;;1.40;;
20830;SDS011;10576;53.556;9.868;2022-12-07T13:31:49;6.40;;;1.90;;
20830;SDS011;10576;53.556;9.868;2022-12-07T13:34:05;5.50;;;1.83;;
20830;SDS011;10576;53.556;9.868;2022-12-07T13:36:58;7.85;;;2.05;;
20830;SDS011;10576;53.556;9.868;2022-12-07T13:39:32;8.32;;;1.67;;
20830;SDS011;10576;53.556;9.868;2022-12-07T13:41:59;7.22;;;1.80;;
20830;SDS011;10576;53.556;9.868;2022-12-07T13:44:40;4.30;;;1.80;;
20830;SDS011;10576;53.556;9.868;2022-12-07T13:47:11;4.95;;;1.80;;
20830;SDS011;10576;53.556;9.868;2022-12-07T13:49:53;9.25;;;2.38;;
20830;SDS011;10576;53.556;9.868;2022-12-07T13:52:24;6.20;;;1.83;;
20830;SDS011;10576;53.556;9.868;2022-12-07T13:55:05;7.72;;;1.70;;
20830;SDS011;10576;53.556;9.868;2022-12-07T13:57:39;6.97;;;2.03;;
20830;SDS011;10576;53.556;9.868;2022-12-07T14:00:14;3.72;;;1.50;;
20830;SDS011;10576;53.556;9.868;2022-12-07T14:03:42;5.18;;;1.30;;
20830;SDS011;10576;53.556;9.868;2022-12-07T14:05:39;7.63;;;1.45;;
20830;SDS011;10576;53.556;9.868;2022-12-07T14:10:39;3.60;;;1.33;;
20830;SDS011;10576;53.556;9.868;2022-12-07T14:15:49;5.25;;;1.40;;
20830;SDS011;10576;53.556;9.868;2022-12-07T14:21:14;7.95;;;1.63;;
20830;SDS011;10576;53.556;9.868;2022-12-07T14:23:42;3.70;;;1.27;;
20830;SDS011;10576;53.556;9.868;2022-12-07T14:26:12;6.63;;;1.30;;
20830;SDS011;10576;53.556;9.868;2022-12-07T14:28:40;4.00;;;1.02;;
20830;SDS011;10576;53.556;9.868;2022-12-07T14:31:11;6.05;;;1.27;;
20830;SDS011;10576;53.556;9.868;2022-12-07T14:33:39;5.68;;;1.65;;
20830;SDS011;10576;53.556;9.868;2022-12-07T14:36:05;3.67;;;1.30;;
20830;SDS011;10576;53.556;9.868;2022-12-07T14:38:36;2.92;;;1.20;;
20830;SDS011;10576;53.556;9.868;2022-12-07T14:41:02;8.13;;;1.20;;
20830;SDS011;10576;53.556;9.868;2022-12-07T14:43:55;3.72;;;1.25;;
20830;SDS011;10576;53.556;9.868;2022-12-07T14:46:21;5.23;;;1.27;;
20830;SDS011;10576;53.556;9.868;2022-12-07T14:48:46;3.77;;;1.20;;
20830;SDS011;10576;53.556;9.868;2022-12-07T14:51:13;5.10;;;1.70;;
20830;SDS011;10576;53.556;9.868;2022-12-07T14:53:40;6.68;;;1.33;;
20830;SDS011;10576;53.556;9.868;2022-12-07T14:56:16;5.70;;;1.60;;
20830;SDS011;10576;53.556;9.868;2022-12-07T14:58:42;5.83;;;1.80;;
20830;SDS011;10576;53.556;9.868;2022-12-07T15:01:07;4.40;;;1.53;;
20830;SDS011;10576;53.556;9.868;2022-12-07T15:03:33;3.85;;;1.80;;
20830;SDS011;10576;53.556;9.868;2022-12-07T15:06:01;3.90;;;1.60;;
20830;SDS011;10576;53.556;9.868;2022-12-07T15:08:36;4.22;;;1.60;;
20830;SDS011;10576;53.556;9.868;2022-12-07T15:11:02;5.38;;;1.63;;
20830;SDS011;10576;53.556;9.868;2022-12-07T15:13:28;3.57;;;1.50;;
20830;SDS011;10576;53.556;9.868;2022-12-07T15:16:13;6.20;;;1.60;;
20830;SDS011;10576;53.556;9.868;2022-12-07T15:18:44;4.55;;;1.70;;
20830;SDS011;10576;53.556;9.868;2022-12-07T15:21:15;5.32;;;1.52;;
20830;SDS011;10576;53.556;9.868;2022-12-07T15:23:41;3.10;;;1.40;;
20830;SDS011;10576;53.556;9.868;2022-12-07T15:26:07;4.57;;;1.35;;
20830;SDS011;10576;53.556;9.868;2022-12-07T15:28:35;4.13;;;1.63;;
20830;SDS011;10576;53.556;9.868;2022-12-07T15:31:01;4.13;;;1.47;;
20830;SDS011;10576;53.556;9.868;2022-12-07T15:33:26;5.47;;;1.57;;
20830;SDS011;10576;53.556;9.868;2022-12-07T15:35:52;3.70;;;1.40;;
20830;SDS011;10576;53.556;9.868;2022-12-07T15:38:18;5.85;;;1.50;;
20830;SDS011;10576;53.556;9.868;2022-12-07T15:40:46;4.67;;;1.50;;
20830;SDS011;10576;53.556;9.868;2022-12-07T15:43:12;4.30;;;1.50;;
20830;SDS011;10576;53.556;9.868;2022-12-07T15:45:56;3.25;;;1.55;;
20830;SDS011;10576;53.556;9.868;2022-12-07T15:48:23;4.60;;;1.27;;
20830;SDS011;10576;53.556;9.868;2022-12-07T15:50:49;2.70;;;1.40;;
20830;SDS011;10576;53.556;9.868;2022-12-07T15:53:14;5.30;;;1.60;;
20830;SDS011;10576;53.556;9.868;2022-12-07T15:55:40;8.10;;;1.70;;
20830;SDS011;10576;53.556;9.868;2022-12-07T15:58:06;6.13;;;2.00;;
20830;SDS011;10576;53.556;9.868;2022-12-07T16:00:32;5.25;;;2.10;;
20830;SDS011;10576;53.556;9.868;2022-12-07T16:02:58;5.50;;;2.20;;
20830;SDS011;10576;53.556;9.868;2022-12-07T16:05:23;5.40;;;2.15;;
20830;SDS011;10576;53.556;9.868;2022-12-07T16:07:49;4.60;;;2.08;;
20830;SDS011;10576;53.556;9.868;2022-12-07T16:10:15;3.40;;;2.10;;
20830;SDS011;10576;53.556;9.868;2022-12-07T16:12:40;7.77;;;2.20;;
20830;SDS011;10576;53.556;9.868;2022-12-07T16:15:06;5.00;;;1.75;;
20830;SDS011;10576;53.556;9.868;2022-12-07T16:17:32;4.63;;;2.13;;
20830;SDS011;10576;53.556;9.868;2022-12-07T16:19:58;3.80;;;1.80;;
20830;SDS011;10576;53.556;9.868;2022-12-07T16:22:24;4.25;;;1.70;;
20830;SDS011;10576;53.556;9.868;2022-12-07T16:24:49;7.30;;;2.00;;
20830;SDS011;10576;53.556;9.868;2022-12-07T16:27:15;3.43;;;2.07;;
20830;SDS011;10576;53.556;9.868;2022-12-07T16:29:41;4.75;;;2.15;;
20830;SDS011;10576;53.556;9.868;2022-12-07T16:32:06;7.28;;;2.20;;
20830;SDS011;10576;53.556;9.868;2022-12-07T16:34:32;5.30;;;2.00;;
20830;SDS011;10576;53.556;9.868;2022-12-07T16:36:58;6.23;;;2.30;;
20830;SDS011;10576;53.556;9.868;2022-12-07T16:39:23;3.47;;;2.10;;
20830;SDS011;10576;53.556;9.868;2022-12-07T16:41:49;4.97;;;2.05;;
20830;SDS011;10576;53.556;9.868;2022-12-07T16:44:15;3.83;;;2.00;;
20830;SDS011;10576;53.556;9.868;2022-12-07T16:46:41;8.05;;;2.30;;
20830;SDS011;10576;53.556;9.868;2022-12-07T16:49:11;5.90;;;2.40;;
20830;SDS011;10576;53.556;9.868;2022-12-07T16:51:40;4.50;;;2.30;;
20830;SDS011;10576;53.556;9.868;2022-12-07T16:54:09;6.55;;;2.55;;
20830;SDS011;10576;53.556;9.868;2022-12-07T16:56:36;7.65;;;2.25;;
20830;SDS011;10576;53.556;9.868;2022-12-07T16:59:01;7.32;;;2.50;;
20830;SDS011;10576;53.556;9.868;2022-12-07T17:01:27;8.53;;;3.73;;
20830;SDS011;10576;53.556;9.868;2022-12-07T17:03:53;9.70;;;3.20;;
20830;SDS011;10576;53.556;9.868;2022-12-07T17:06:23;12.23;;;4.88;;
20830;SDS011;10576;53.556;9.868;2022-12-07T17:08:50;12.27;;;5.65;;
20830;SDS011;10576;53.556;9.868;2022-12-07T17:11:17;20.23;;;7.68;;
20830;SDS011;10576;53.556;9.868;2022-12-07T17:13:47;41.33;;;8.93;;
20830;SDS011;10576;53.556;9.868;2022-12-07T17:16:32;27.20;;;8.25;;
20830;SDS011;10576;53.556;9.868;2022-12-07T17:18:59;21.42;;;7.63;;